Hlavní strana
METAR-TAF:

METAR-TAF

Letiště :

Norimberk, Německo

zeměpisná šířka: 49-30N, zeměpisná délka: 011-03E, výška: 318 m

Aktuální stav počasí

Zpráva byla vytvořena před 39 minutami, v 04:20 UTC
Severní vítr 4 kt
Teplota -3°C
Vlhkost vzduchu 93%
Tlak 1025 hPa
Viditelnost 10 km a více
Žádná oblačnost pod 1500 m, nevyskytují se cumulonimby.

METAR: EDDN 180420Z 36004KT CAVOK M03/M04 Q1025 R28/29//95

Čas: 05:59 (04:59 UTC)

Předpověď počasí

Zpráva byla vytvořena před 5 hodinami a 59 minutami, v 23:00 UTC
Předpověď platná od 18 v 00 UTC do 18 v 24 UTC
vítr z různých směrů 3 kt
Viditelnost 10 km a více
Žádná oblačnost pod 1500 m, nevyskytují se cumulonimby.
Změna
od 18 v 08 UTC do 18 v 10 UTC
Východní vítr 5 kt

TAF: EDDN 172300Z 1800/1824 VRB03KT CAVOK BECMG 1808/1810 10005KT

Stav a předpovědi počasí z více než 4 000 letišť (zprávy METAR a TAF).

Červené a žluté tečky na mapě představují dostupné meteorologické stanice.

Když kurzor umístíte na tečku, zobrazí se název stanice.

Pak kliknutím zobrazíte stav a předpověď počasí.

Chcete-li změnit mapu, kliknutím na zelené tlačítko se znaménkem +mapu přiblížíte, kliknutím na zelené tlačítko se znaménkem – mapu oddálíte a kliknutím na zelené šipky přejdete na sousední mapy.


METAR-TAF: